sensor_id;sensor_type;location;lat;lon;timestamp;pressure;altitude;pressure_sealevel;temperature;humidity
57948;BME280;43754;56.992;24.292;2023-07-13T00:00:07;100698.44;;;18.29;78.67
57948;BME280;43754;56.992;24.292;2023-07-13T00:02:44;100702.81;;;18.30;78.91
57948;BME280;43754;56.992;24.292;2023-07-13T00:05:16;100694.69;;;18.30;80.50
57948;BME280;43754;56.992;24.292;2023-07-13T00:07:48;100694.91;;;18.29;80.19
57948;BME280;43754;56.992;24.292;2023-07-13T00:10:21;100694.69;;;18.30;80.48
57948;BME280;43754;56.992;24.292;2023-07-13T00:12:53;100681.47;;;18.34;79.94
57948;BME280;43754;56.992;24.292;2023-07-13T00:15:27;100687.72;;;18.34;79.53
57948;BME280;43754;56.992;24.292;2023-07-13T00:18:01;100684.44;;;18.32;80.29
57948;BME280;43754;56.992;24.292;2023-07-13T00:20:34;100680.88;;;18.32;79.75
57948;BME280;43754;56.992;24.292;2023-07-13T00:23:06;100683.00;;;18.30;80.30
57948;BME280;43754;56.992;24.292;2023-07-13T00:25:38;100677.00;;;18.28;79.55
57948;BME280;43754;56.992;24.292;2023-07-13T00:28:10;100674.72;;;18.25;80.80
57948;BME280;43754;56.992;24.292;2023-07-13T00:30:43;100673.09;;;18.24;80.53
57948;BME280;43754;56.992;24.292;2023-07-13T00:33:16;100667.03;;;18.22;81.68
57948;BME280;43754;56.992;24.292;2023-07-13T00:35:50;100662.56;;;18.16;80.76
57948;BME280;43754;56.992;24.292;2023-07-13T00:38:22;100656.53;;;18.14;81.73
57948;BME280;43754;56.992;24.292;2023-07-13T00:40:54;100660.91;;;18.15;78.67
57948;BME280;43754;56.992;24.292;2023-07-13T00:43:28;100659.38;;;18.19;78.53
57948;BME280;43754;56.992;24.292;2023-07-13T00:46:17;100658.34;;;18.20;80.93
57948;BME280;43754;56.992;24.292;2023-07-13T00:48:50;100654.31;;;18.22;81.04
57948;BME280;43754;56.992;24.292;2023-07-13T00:51:28;100658.91;;;18.22;80.65
57948;BME280;43754;56.992;24.292;2023-07-13T00:54:05;100653.34;;;18.17;81.71
57948;BME280;43754;56.992;24.292;2023-07-13T00:56:39;100653.34;;;18.17;81.46
57948;BME280;43754;56.992;24.292;2023-07-13T00:59:13;100643.94;;;18.19;81.86
57948;BME280;43754;56.992;24.292;2023-07-13T01:01:48;100651.81;;;18.21;80.46
57948;BME280;43754;56.992;24.292;2023-07-13T01:04:24;100647.22;;;18.21;79.17
57948;BME280;43754;56.992;24.292;2023-07-13T01:06:57;100651.38;;;18.24;81.34
57948;BME280;43754;56.992;24.292;2023-07-13T01:09:29;100640.88;;;18.27;79.48
57948;BME280;43754;56.992;24.292;2023-07-13T01:12:02;100645.84;;;18.30;79.48
57948;BME280;43754;56.992;24.292;2023-07-13T01:14:35;100646.88;;;18.29;79.59
57948;BME280;43754;56.992;24.292;2023-07-13T01:17:10;100649.38;;;18.31;80.63
57948;BME280;43754;56.992;24.292;2023-07-13T01:19:44;100647.97;;;18.28;79.13
57948;BME280;43754;56.992;24.292;2023-07-13T01:22:18;100642.53;;;18.28;79.45
57948;BME280;43754;56.992;24.292;2023-07-13T01:24:51;100647.16;;;18.28;78.15
57948;BME280;43754;56.992;24.292;2023-07-13T01:27:25;100645.25;;;18.28;78.36
57948;BME280;43754;56.992;24.292;2023-07-13T01:29:57;100642.53;;;18.28;77.92
57948;BME280;43754;56.992;24.292;2023-07-13T01:32:35;100640.41;;;18.30;79.21
57948;BME280;43754;56.992;24.292;2023-07-13T01:35:08;100634.97;;;18.30;78.69
57948;BME280;43754;56.992;24.292;2023-07-13T01:37:43;100631.22;;;18.31;77.50
57948;BME280;43754;56.992;24.292;2023-07-13T01:40:16;100627.44;;;18.32;76.38
57948;BME280;43754;56.992;24.292;2023-07-13T01:42:48;100617.03;;;18.29;76.41
57948;BME280;43754;56.992;24.292;2023-07-13T01:45:23;100615.78;;;18.32;76.65
57948;BME280;43754;56.992;24.292;2023-07-13T01:47:56;100612.44;;;18.30;76.04
57948;BME280;43754;56.992;24.292;2023-07-13T01:50:28;100613.97;;;18.26;76.66
57948;BME280;43754;56.992;24.292;2023-07-13T01:53:02;100608.53;;;18.26;76.26
57948;BME280;43754;56.992;24.292;2023-07-13T01:55:35;100609.97;;;18.28;75.39
57948;BME280;43754;56.992;24.292;2023-07-13T01:58:07;100608.06;;;18.29;76.51
57948;BME280;43754;56.992;24.292;2023-07-13T02:00:39;100605.34;;;18.29;75.77
57948;BME280;43754;56.992;24.292;2023-07-13T02:03:11;100607.16;;;18.35;75.69
57948;BME280;43754;56.992;24.292;2023-07-13T02:05:43;100607.50;;;18.38;77.72
57948;BME280;43754;56.992;24.292;2023-07-13T02:08:17;100611.63;;;18.41;77.86
57948;BME280;43754;56.992;24.292;2023-07-13T02:10:51;100609.75;;;18.42;77.29
57948;BME280;43754;56.992;24.292;2023-07-13T02:13:23;100602.22;;;18.44;76.79
57948;BME280;43754;56.992;24.292;2023-07-13T02:15:55;100604.31;;;18.42;76.95
57948;BME280;43754;56.992;24.292;2023-07-13T02:18:27;100594.16;;;18.37;78.12
57948;BME280;43754;56.992;24.292;2023-07-13T02:20:59;100602.22;;;18.44;76.92
57948;BME280;43754;56.992;24.292;2023-07-13T02:23:33;100602.22;;;18.44;77.99
57948;BME280;43754;56.992;24.292;2023-07-13T02:26:05;100590.53;;;18.43;76.80
57948;BME280;43754;56.992;24.292;2023-07-13T02:28:38;100602.56;;;18.47;76.79
57948;BME280;43754;56.992;24.292;2023-07-13T02:31:12;100596.66;;;18.50;75.75
57948;BME280;43754;56.992;24.292;2023-07-13T02:33:45;100590.16;;;18.51;75.85
57948;BME280;43754;56.992;24.292;2023-07-13T02:36:17;100585.38;;;18.53;76.48
57948;BME280;43754;56.992;24.292;2023-07-13T02:38:51;100587.25;;;18.53;77.03
57948;BME280;43754;56.992;24.292;2023-07-13T02:41:23;100585.56;;;18.52;76.57
57948;BME280;43754;56.992;24.292;2023-07-13T02:43:58;100584.97;;;18.50;78.53
57948;BME280;43754;56.992;24.292;2023-07-13T02:46:36;100568.69;;;18.50;79.30
57948;BME280;43754;56.992;24.292;2023-07-13T02:49:08;100579.94;;;18.53;78.00
57948;BME280;43754;56.992;24.292;2023-07-13T02:51:40;100571.56;;;18.55;79.92
57948;BME280;43754;56.992;24.292;2023-07-13T02:54:14;100569.78;;;18.60;78.53
57948;BME280;43754;56.992;24.292;2023-07-13T02:56:47;100570.97;;;18.64;77.22
57948;BME280;43754;56.992;24.292;2023-07-13T02:59:20;100574.25;;;18.66;76.64
57948;BME280;43754;56.992;24.292;2023-07-13T03:01:52;100593.03;;;18.68;77.44
57948;BME280;43754;56.992;24.292;2023-07-13T03:04:24;100598.59;;;18.73;76.36
57948;BME280;43754;56.992;24.292;2023-07-13T03:06:56;100590.19;;;18.74;76.32
57948;BME280;43754;56.992;24.292;2023-07-13T03:09:37;100593.63;;;18.81;76.42
57948;BME280;43754;56.992;24.292;2023-07-13T03:12:12;100590.44;;;18.84;75.51
57948;BME280;43754;56.992;24.292;2023-07-13T03:14:44;100603.19;;;18.84;74.91
57948;BME280;43754;56.992;24.292;2023-07-13T03:17:16;100608.13;;;18.87;75.48
57948;BME280;43754;56.992;24.292;2023-07-13T03:19:48;100603.88;;;18.91;74.64
57948;BME280;43754;56.992;24.292;2023-07-13T03:22:23;100609.56;;;18.90;73.79
57948;BME280;43754;56.992;24.292;2023-07-13T03:24:57;100600.25;;;18.86;73.60
57948;BME280;43754;56.992;24.292;2023-07-13T03:27:30;100607.69;;;18.90;73.91
57948;BME280;43754;56.992;24.292;2023-07-13T03:30:03;100601.75;;;18.93;74.23
57948;BME280;43754;56.992;24.292;2023-07-13T03:32:36;100609.69;;;18.95;74.96
57948;BME280;43754;56.992;24.292;2023-07-13T03:35:10;100608.59;;;18.96;75.88
57948;BME280;43754;56.992;24.292;2023-07-13T03:37:42;100612.97;;;18.97;76.41
57948;BME280;43754;56.992;24.292;2023-07-13T03:40:21;100618.41;;;18.97;76.76
57948;BME280;43754;56.992;24.292;2023-07-13T03:42:53;100621.13;;;18.97;76.38
57948;BME280;43754;56.992;24.292;2023-07-13T03:45:26;100624.66;;;18.97;75.66
57948;BME280;43754;56.992;24.292;2023-07-13T03:47:58;100624.66;;;18.97;76.85
57948;BME280;43754;56.992;24.292;2023-07-13T03:50:31;100629.28;;;18.97;77.78
57948;BME280;43754;56.992;24.292;2023-07-13T03:53:03;100634.47;;;18.98;77.68
57948;BME280;43754;56.992;24.292;2023-07-13T03:55:37;100635.75;;;18.96;79.44
57948;BME280;43754;56.992;24.292;2023-07-13T03:58:30;100642.50;;;18.93;79.29
57948;BME280;43754;56.992;24.292;2023-07-13T04:01:11;100638.97;;;18.93;78.51
57948;BME280;43754;56.992;24.292;2023-07-13T04:03:44;100639.31;;;18.96;78.70
57948;BME280;43754;56.992;24.292;2023-07-13T04:06:20;100640.97;;;18.97;78.47
57948;BME280;43754;56.992;24.292;2023-07-13T04:08:54;100638.84;;;18.99;78.06
57948;BME280;43754;56.992;24.292;2023-07-13T04:11:29;100642.16;;;19.01;78.84
57948;BME280;43754;56.992;24.292;2023-07-13T04:14:04;100645.22;;;19.05;78.41
57948;BME280;43754;56.992;24.292;2023-07-13T04:16:38;100649.09;;;19.09;78.18
57948;BME280;43754;56.992;24.292;2023-07-13T04:19:10;100646.28;;;19.15;78.31
57948;BME280;43754;56.992;24.292;2023-07-13T04:21:42;100649.47;;;19.24;77.98
57948;BME280;43754;56.992;24.292;2023-07-13T04:24:14;100650.13;;;19.31;78.16
57948;BME280;43754;56.992;24.292;2023-07-13T04:26:48;100656.25;;;19.38;78.88
57948;BME280;43754;56.992;24.292;2023-07-13T04:29:20;100655.34;;;19.44;78.46
57948;BME280;43754;56.992;24.292;2023-07-13T04:31:52;100657.69;;;19.52;78.27
57948;BME280;43754;56.992;24.292;2023-07-13T04:34:24;100654.59;;;19.60;78.55
57948;BME280;43754;56.992;24.292;2023-07-13T04:36:56;100654.78;;;19.70;78.77
57948;BME280;43754;56.992;24.292;2023-07-13T04:39:28;100649.22;;;19.77;79.07
57948;BME280;43754;56.992;24.292;2023-07-13T04:42:02;100649.94;;;19.72;80.64
57948;BME280;43754;56.992;24.292;2023-07-13T04:44:34;100652.59;;;19.84;80.64
57948;BME280;43754;56.992;24.292;2023-07-13T04:47:06;100659.41;;;19.98;81.05
57948;BME280;43754;56.992;24.292;2023-07-13T04:49:38;100652.84;;;20.11;81.61
57948;BME280;43754;56.992;24.292;2023-07-13T04:52:11;100654.13;;;20.20;83.56
57948;BME280;43754;56.992;24.292;2023-07-13T04:54:43;100663.78;;;20.28;83.13
57948;BME280;43754;56.992;24.292;2023-07-13T04:57:17;100668.09;;;20.40;83.96
57948;BME280;43754;56.992;24.292;2023-07-13T04:59:49;100657.22;;;20.40;83.46
57948;BME280;43754;56.992;24.292;2023-07-13T05:02:21;100661.75;;;20.51;84.21
57948;BME280;43754;56.992;24.292;2023-07-13T05:04:53;100658.38;;;20.61;84.29
57948;BME280;43754;56.992;24.292;2023-07-13T05:07:26;100660.94;;;20.67;84.63
57948;BME280;43754;56.992;24.292;2023-07-13T05:09:58;100661.50;;;20.86;84.59
57948;BME280;43754;56.992;24.292;2023-07-13T05:12:31;100654.13;;;21.03;85.54
57948;BME280;43754;56.992;24.292;2023-07-13T05:15:04;100651.06;;;21.17;82.60
57948;BME280;43754;56.992;24.292;2023-07-13T05:17:36;100663.09;;;21.37;82.88
57948;BME280;43754;56.992;24.292;2023-07-13T05:20:10;100651.84;;;21.55;82.85
57948;BME280;43754;56.992;24.292;2023-07-13T05:22:43;100661.09;;;21.76;82.82
57948;BME280;43754;56.992;24.292;2023-07-13T05:25:15;100665.09;;;21.69;83.95
57948;BME280;43754;56.992;24.292;2023-07-13T05:27:49;100668.81;;;21.58;83.83
57948;BME280;43754;56.992;24.292;2023-07-13T05:30:21;100670.44;;;21.58;82.95
57948;BME280;43754;56.992;24.292;2023-07-13T05:32:53;100668.09;;;21.67;83.01
57948;BME280;43754;56.992;24.292;2023-07-13T05:35:25;100667.59;;;21.70;83.23
57948;BME280;43754;56.992;24.292;2023-07-13T05:37:57;100660.41;;;21.86;82.58
57948;BME280;43754;56.992;24.292;2023-07-13T05:43:02;100666.28;;;22.53;78.87
57948;BME280;43754;56.992;24.292;2023-07-13T05:45:35;100662.97;;;22.51;80.92
57948;BME280;43754;56.992;24.292;2023-07-13T05:48:07;100663.91;;;22.62;81.26
57948;BME280;43754;56.992;24.292;2023-07-13T05:50:39;100673.44;;;22.91;80.32
57948;BME280;43754;56.992;24.292;2023-07-13T05:53:12;100678.34;;;22.89;78.57
57948;BME280;43754;56.992;24.292;2023-07-13T05:55:45;100673.00;;;23.04;78.48
57948;BME280;43754;56.992;24.292;2023-07-13T05:58:26;100671.00;;;23.36;75.98
57948;BME280;43754;56.992;24.292;2023-07-13T06:01:00;100676.84;;;23.50;76.39
57948;BME280;43754;56.992;24.292;2023-07-13T06:03:33;100679.22;;;23.42;75.23
57948;BME280;43754;56.992;24.292;2023-07-13T06:06:05;100689.06;;;22.96;77.45
57948;BME280;43754;56.992;24.292;2023-07-13T06:08:38;100687.44;;;23.00;76.79
57948;BME280;43754;56.992;24.292;2023-07-13T06:11:14;100684.97;;;22.98;78.02
57948;BME280;43754;56.992;24.292;2023-07-13T06:13:48;100687.44;;;23.00;78.28
57948;BME280;43754;56.992;24.292;2023-07-13T06:16:20;100681.59;;;22.86;78.01
57948;BME280;43754;56.992;24.292;2023-07-13T06:18:53;100680.19;;;22.78;78.46
57948;BME280;43754;56.992;24.292;2023-07-13T06:21:25;100686.59;;;22.62;79.46
57948;BME280;43754;56.992;24.292;2023-07-13T06:23:57;100691.06;;;22.41;81.18
57948;BME280;43754;56.992;24.292;2023-07-13T06:26:29;100699.16;;;22.10;81.55
57948;BME280;43754;56.992;24.292;2023-07-13T06:29:02;100691.50;;;22.07;80.48
57948;BME280;43754;56.992;24.292;2023-07-13T06:31:34;100702.34;;;22.01;80.84
57948;BME280;43754;56.992;24.292;2023-07-13T06:34:07;100698.44;;;21.92;81.46
57948;BME280;43754;56.992;24.292;2023-07-13T06:36:39;100695.75;;;21.97;79.48
57948;BME280;43754;56.992;24.292;2023-07-13T06:39:11;100697.72;;;22.02;80.61
57948;BME280;43754;56.992;24.292;2023-07-13T06:41:43;100686.72;;;22.19;79.11
57948;BME280;43754;56.992;24.292;2023-07-13T06:44:19;100692.28;;;22.29;77.27
57948;BME280;43754;56.992;24.292;2023-07-13T06:46:51;100698.91;;;22.38;77.36
57948;BME280;43754;56.992;24.292;2023-07-13T06:49:23;100703.41;;;22.49;76.66
57948;BME280;43754;56.992;24.292;2023-07-13T06:51:55;100707.56;;;22.57;76.34
57948;BME280;43754;56.992;24.292;2023-07-13T06:54:27;100705.66;;;22.57;76.76
57948;BME280;43754;56.992;24.292;2023-07-13T06:56:59;100712.69;;;22.75;76.19
57948;BME280;43754;56.992;24.292;2023-07-13T06:59:33;100708.94;;;22.86;75.93
57948;BME280;43754;56.992;24.292;2023-07-13T07:02:06;100711.22;;;22.99;74.79
57948;BME280;43754;56.992;24.292;2023-07-13T07:04:38;100711.56;;;23.08;73.71
57948;BME280;43754;56.992;24.292;2023-07-13T07:07:10;100716.22;;;23.07;73.99
57948;BME280;43754;56.992;24.292;2023-07-13T07:09:42;100718.97;;;23.12;75.10
57948;BME280;43754;56.992;24.292;2023-07-13T07:12:14;100727.19;;;23.17;74.95
57948;BME280;43754;56.992;24.292;2023-07-13T07:14:47;100728.63;;;23.25;75.52
57948;BME280;43754;56.992;24.292;2023-07-13T07:17:19;100731.09;;;23.26;74.14
57948;BME280;43754;56.992;24.292;2023-07-13T07:19:54;100730.25;;;23.26;75.29
57948;BME280;43754;56.992;24.292;2023-07-13T07:22:26;100738.22;;;23.27;75.15
57948;BME280;43754;56.992;24.292;2023-07-13T07:24:59;100737.38;;;23.27;74.50
57948;BME280;43754;56.992;24.292;2023-07-13T07:27:32;100743.22;;;23.41;74.31
57948;BME280;43754;56.992;24.292;2023-07-13T07:30:09;100746.34;;;23.54;72.93
57948;BME280;43754;56.992;24.292;2023-07-13T07:32:44;100759.00;;;23.65;72.40
57948;BME280;43754;56.992;24.292;2023-07-13T07:35:19;100753.50;;;23.60;72.74
57948;BME280;43754;56.992;24.292;2023-07-13T07:37:51;100755.44;;;23.65;73.38
57948;BME280;43754;56.992;24.292;2023-07-13T07:40:23;100752.25;;;23.83;73.06
57948;BME280;43754;56.992;24.292;2023-07-13T07:42:58;100742.69;;;23.91;71.31
57948;BME280;43754;56.992;24.292;2023-07-13T07:45:32;100744.88;;;23.94;71.00
57948;BME280;43754;56.992;24.292;2023-07-13T07:48:04;100748.31;;;23.64;72.20
57948;BME280;43754;56.992;24.292;2023-07-13T07:50:37;100751.69;;;23.39;72.56
57948;BME280;43754;56.992;24.292;2023-07-13T07:53:10;100751.84;;;23.22;74.33
57948;BME280;43754;56.992;24.292;2023-07-13T07:55:42;100756.78;;;23.20;74.67
57948;BME280;43754;56.992;24.292;2023-07-13T07:58:17;100765.81;;;23.21;74.10
57948;BME280;43754;56.992;24.292;2023-07-13T08:01:11;100774.16;;;23.41;73.48
57948;BME280;43754;56.992;24.292;2023-07-13T08:03:46;100773.97;;;23.53;72.34
57948;BME280;43754;56.992;24.292;2023-07-13T08:06:21;100765.25;;;23.61;73.03
57948;BME280;43754;56.992;24.292;2023-07-13T08:08:56;100772.25;;;23.83;71.48
57948;BME280;43754;56.992;24.292;2023-07-13T08:11:28;100776.41;;;23.96;71.13
57948;BME280;43754;56.992;24.292;2023-07-13T08:14:03;100782.34;;;23.88;71.60
57948;BME280;43754;56.992;24.292;2023-07-13T08:16:36;100785.94;;;23.83;71.37
57948;BME280;43754;56.992;24.292;2023-07-13T08:19:09;100784.44;;;23.66;71.53
57948;BME280;43754;56.992;24.292;2023-07-13T08:21:41;100792.88;;;23.54;73.00
57948;BME280;43754;56.992;24.292;2023-07-13T08:24:14;100794.03;;;23.68;73.30
57948;BME280;43754;56.992;24.292;2023-07-13T08:26:47;100801.22;;;23.84;71.54
57948;BME280;43754;56.992;24.292;2023-07-13T08:29:20;100793.59;;;23.87;72.00
57948;BME280;43754;56.992;24.292;2023-07-13T08:31:53;100799.09;;;23.92;71.98
57948;BME280;43754;56.992;24.292;2023-07-13T08:34:26;100807.50;;;23.80;72.40
57948;BME280;43754;56.992;24.292;2023-07-13T08:36:58;100804.22;;;23.78;71.76
57948;BME280;43754;56.992;24.292;2023-07-13T08:39:30;100808.63;;;23.84;71.46
57948;BME280;43754;56.992;24.292;2023-07-13T08:42:07;100814.97;;;23.90;71.61
57948;BME280;43754;56.992;24.292;2023-07-13T08:44:50;100818.25;;;23.87;70.80
57948;BME280;43754;56.992;24.292;2023-07-13T08:47:28;100828.59;;;23.79;69.89
57948;BME280;43754;56.992;24.292;2023-07-13T08:50:02;100833.09;;;23.59;70.45
57948;BME280;43754;56.992;24.292;2023-07-13T08:52:36;100837.66;;;23.85;69.34
57948;BME280;43754;56.992;24.292;2023-07-13T08:55:13;100834.47;;;24.03;68.80
57948;BME280;43754;56.992;24.292;2023-07-13T08:57:50;100838.19;;;24.34;67.95
57948;BME280;43754;56.992;24.292;2023-07-13T09:00:31;100832.25;;;24.57;67.13
57948;BME280;43754;56.992;24.292;2023-07-13T09:03:06;100828.47;;;24.84;66.63
57948;BME280;43754;56.992;24.292;2023-07-13T09:05:49;100830.16;;;25.15;65.86
57948;BME280;43754;56.992;24.292;2023-07-13T09:08:33;100834.00;;;25.34;62.95
57948;BME280;43754;56.992;24.292;2023-07-13T09:11:23;100834.56;;;25.36;61.73
57948;BME280;43754;56.992;24.292;2023-07-13T09:14:05;100835.38;;;25.11;62.41
57948;BME280;43754;56.992;24.292;2023-07-13T09:16:39;100845.25;;;25.28;61.73
57948;BME280;43754;56.992;24.292;2023-07-13T09:19:18;100828.75;;;25.83;59.21
57948;BME280;43754;56.992;24.292;2023-07-13T09:21:53;100837.03;;;26.47;58.36
57948;BME280;43754;56.992;24.292;2023-07-13T09:24:36;100835.44;;;26.41;56.22
57948;BME280;43754;56.992;24.292;2023-07-13T09:27:13;100830.84;;;26.17;56.57
57948;BME280;43754;56.992;24.292;2023-07-13T09:29:54;100843.44;;;26.18;56.92
57948;BME280;43754;56.992;24.292;2023-07-13T09:32:29;100842.06;;;26.30;54.36
57948;BME280;43754;56.992;24.292;2023-07-13T09:35:10;100841.28;;;26.20;54.87
57948;BME280;43754;56.992;24.292;2023-07-13T09:37:44;100842.66;;;26.17;52.95
57948;BME280;43754;56.992;24.292;2023-07-13T09:40:21;100840.44;;;26.24;54.30
57948;BME280;43754;56.992;24.292;2023-07-13T09:42:57;100837.59;;;26.49;52.87
57948;BME280;43754;56.992;24.292;2023-07-13T09:45:36;100841.31;;;26.69;53.54
57948;BME280;43754;56.992;24.292;2023-07-13T09:48:12;100826.66;;;26.83;52.43
57948;BME280;43754;56.992;24.292;2023-07-13T09:50:47;100830.59;;;27.11;53.21
57948;BME280;43754;56.992;24.292;2023-07-13T09:53:19;100828.59;;;26.83;51.72
57948;BME280;43754;56.992;24.292;2023-07-13T09:55:51;100830.88;;;26.71;51.71
57948;BME280;43754;56.992;24.292;2023-07-13T09:58:26;100850.88;;;26.76;52.73
57948;BME280;43754;56.992;24.292;2023-07-13T10:01:02;100834.13;;;26.78;51.87
57948;BME280;43754;56.992;24.292;2023-07-13T10:03:52;100835.69;;;26.94;52.71
57948;BME280;43754;56.992;24.292;2023-07-13T10:06:26;100827.72;;;26.92;52.15
57948;BME280;43754;56.992;24.292;2023-07-13T10:08:58;100840.78;;;26.67;52.82
57948;BME280;43754;56.992;24.292;2023-07-13T10:11:31;100831.16;;;26.64;53.11
57948;BME280;43754;56.992;24.292;2023-07-13T10:14:11;100838.50;;;26.79;52.83
57948;BME280;43754;56.992;24.292;2023-07-13T10:16:46;100836.88;;;26.73;52.85
57948;BME280;43754;56.992;24.292;2023-07-13T10:19:22;100847.63;;;26.74;51.65
57948;BME280;43754;56.992;24.292;2023-07-13T10:22:01;100835.63;;;26.55;52.64
57948;BME280;43754;56.992;24.292;2023-07-13T10:24:38;100841.09;;;26.60;53.67
57948;BME280;43754;56.992;24.292;2023-07-13T10:27:16;100840.72;;;26.77;52.89
57948;BME280;43754;56.992;24.292;2023-07-13T10:29:51;100844.63;;;27.10;52.63
57948;BME280;43754;56.992;24.292;2023-07-13T10:32:26;100845.88;;;27.27;51.96
57948;BME280;43754;56.992;24.292;2023-07-13T10:34:58;100854.50;;;27.16;51.78
57948;BME280;43754;56.992;24.292;2023-07-13T10:37:40;100850.72;;;27.07;51.49
57948;BME280;43754;56.992;24.292;2023-07-13T10:40:18;100861.44;;;27.08;51.50
57948;BME280;43754;56.992;24.292;2023-07-13T10:42:52;100858.34;;;26.76;52.05
57948;BME280;43754;56.992;24.292;2023-07-13T10:45:28;100857.44;;;26.90;51.88
57948;BME280;43754;56.992;24.292;2023-07-13T10:48:02;100855.44;;;27.01;51.49
57948;BME280;43754;56.992;24.292;2023-07-13T10:50:37;100858.09;;;27.16;50.64
57948;BME280;43754;56.992;24.292;2023-07-13T10:53:21;100848.75;;;27.12;50.91
57948;BME280;43754;56.992;24.292;2023-07-13T10:55:59;100868.47;;;27.24;49.91
57948;BME280;43754;56.992;24.292;2023-07-13T10:58:34;100855.41;;;27.06;49.90
57948;BME280;43754;56.992;24.292;2023-07-13T11:01:12;100857.63;;;27.04;50.13
57948;BME280;43754;56.992;24.292;2023-07-13T11:03:50;100853.78;;;27.05;49.91
57948;BME280;43754;56.992;24.292;2023-07-13T11:06:34;100855.91;;;27.13;50.31
57948;BME280;43754;56.992;24.292;2023-07-13T11:09:33;100860.47;;;27.28;49.96
57948;BME280;43754;56.992;24.292;2023-07-13T11:12:25;100861.97;;;27.10;49.55
57948;BME280;43754;56.992;24.292;2023-07-13T11:15:04;100865.94;;;26.94;50.30
57948;BME280;43754;56.992;24.292;2023-07-13T11:17:51;100864.63;;;26.86;49.82
57948;BME280;43754;56.992;24.292;2023-07-13T11:20:36;100859.97;;;27.21;49.10
57948;BME280;43754;56.992;24.292;2023-07-13T11:23:19;100869.41;;;27.49;49.21
57948;BME280;43754;56.992;24.292;2023-07-13T11:25:53;100864.88;;;27.63;49.38
57948;BME280;43754;56.992;24.292;2023-07-13T11:28:27;100863.41;;;27.70;48.34
57948;BME280;43754;56.992;24.292;2023-07-13T11:31:14;100868.97;;;27.65;48.46
57948;BME280;43754;56.992;24.292;2023-07-13T11:33:53;100859.13;;;27.25;48.69
57948;BME280;43754;56.992;24.292;2023-07-13T11:36:32;100862.28;;;27.42;49.85
57948;BME280;43754;56.992;24.292;2023-07-13T11:39:17;100866.50;;;27.64;48.57
57948;BME280;43754;56.992;24.292;2023-07-13T11:41:53;100858.31;;;27.59;48.62
57948;BME280;43754;56.992;24.292;2023-07-13T11:44:30;100870.56;;;27.71;47.98
57948;BME280;43754;56.992;24.292;2023-07-13T11:47:09;100871.00;;;27.55;47.39
57948;BME280;43754;56.992;24.292;2023-07-13T11:49:44;100858.81;;;27.61;48.71
57948;BME280;43754;56.992;24.292;2023-07-13T11:52:20;100869.63;;;27.52;48.97
57948;BME280;43754;56.992;24.292;2023-07-13T11:54:55;100881.19;;;27.54;48.32
57948;BME280;43754;56.992;24.292;2023-07-13T11:57:31;100866.44;;;27.69;48.16
57948;BME280;43754;56.992;24.292;2023-07-13T12:00:12;100866.22;;;27.65;47.70
57948;BME280;43754;56.992;24.292;2023-07-13T12:02:49;100865.81;;;27.48;47.63
57948;BME280;43754;56.992;24.292;2023-07-13T12:05:22;100870.56;;;27.04;49.32
57948;BME280;43754;56.992;24.292;2023-07-13T12:07:54;100863.50;;;27.26;48.62
57948;BME280;43754;56.992;24.292;2023-07-13T12:10:29;100867.25;;;27.40;47.15
57948;BME280;43754;56.992;24.292;2023-07-13T12:13:05;100871.34;;;27.43;47.02
57948;BME280;43754;56.992;24.292;2023-07-13T12:15:41;100878.88;;;27.32;48.35
57948;BME280;43754;56.992;24.292;2023-07-13T12:18:14;100869.50;;;27.33;47.92
57948;BME280;43754;56.992;24.292;2023-07-13T12:20:48;100864.13;;;27.52;47.92
57948;BME280;43754;56.992;24.292;2023-07-13T12:23:23;100859.84;;;27.70;46.08
57948;BME280;43754;56.992;24.292;2023-07-13T12:25:58;100861.50;;;27.95;46.42
57948;BME280;43754;56.992;24.292;2023-07-13T12:28:34;100860.25;;;28.34;45.64
57948;BME280;43754;56.992;24.292;2023-07-13T12:31:24;100857.13;;;28.60;45.91
57948;BME280;43754;56.992;24.292;2023-07-13T12:33:57;100857.72;;;28.81;44.39
57948;BME280;43754;56.992;24.292;2023-07-13T12:36:32;100872.19;;;28.91;45.73
57948;BME280;43754;56.992;24.292;2023-07-13T12:39:13;100868.97;;;29.21;44.18
57948;BME280;43754;56.992;24.292;2023-07-13T12:41:47;100871.38;;;29.09;44.74
57948;BME280;43754;56.992;24.292;2023-07-13T12:44:25;100871.09;;;28.68;45.27
57948;BME280;43754;56.992;24.292;2023-07-13T12:47:03;100867.59;;;27.92;46.81
57948;BME280;43754;56.992;24.292;2023-07-13T12:49:41;100858.75;;;27.95;47.53
57948;BME280;43754;56.992;24.292;2023-07-13T12:52:16;100866.19;;;27.94;48.16
57948;BME280;43754;56.992;24.292;2023-07-13T12:54:55;100861.34;;;27.57;48.48
57948;BME280;43754;56.992;24.292;2023-07-13T12:57:39;100860.81;;;27.55;50.04
57948;BME280;43754;56.992;24.292;2023-07-13T13:00:23;100872.03;;;27.30;51.40
57948;BME280;43754;56.992;24.292;2023-07-13T13:02:57;100874.78;;;26.81;53.01
57948;BME280;43754;56.992;24.292;2023-07-13T13:05:46;100883.94;;;26.71;53.35
57948;BME280;43754;56.992;24.292;2023-07-13T13:08:18;100877.84;;;26.79;52.08
57948;BME280;43754;56.992;24.292;2023-07-13T13:10:51;100891.03;;;26.87;52.63
57948;BME280;43754;56.992;24.292;2023-07-13T13:13:23;100889.16;;;26.68;52.48
57948;BME280;43754;56.992;24.292;2023-07-13T13:16:01;100886.13;;;26.74;54.32
57948;BME280;43754;56.992;24.292;2023-07-13T13:18:34;100879.53;;;26.70;54.55
57948;BME280;43754;56.992;24.292;2023-07-13T13:21:08;100883.16;;;26.61;54.09